Time;durP1;ratioP1;P1;durP2;ratioP2;P2;SDS_P1;SDS_P2;PMS_P1;PMS_P2;Temp;Humidity;BMP_temperature;BMP_pressure;BME280_temperature;BME280_humidity;BME280_pressure;Samples;Min_cycle;Max_cycle;Signal;HPM_P1;HPM_P2
2022/11/24 00:00:42;;;;;;;291.40;92.33;;;1.40;99.90;;;;;;5240295;28;20265;-51
2022/11/24 00:03:12;;;;;;;330.53;99.63;;;1.40;99.90;;;;;;5246681;28;20263;-50
2022/11/24 00:05:43;;;;;;;342.03;97.40;;;1.40;99.90;;;;;;5240943;28;20214;-51
2022/11/24 00:08:13;;;;;;;308.47;92.83;;;1.40;99.90;;;;;;5212128;28;20182;-50
2022/11/24 00:10:44;;;;;;;309.97;91.30;;;1.50;99.90;;;;;;5240201;28;20694;-49
2022/11/24 00:13:15;;;;;;;264.13;85.07;;;1.50;99.90;;;;;;5225142;28;20221;-52
2022/11/24 00:15:45;;;;;;;346.97;98.43;;;1.50;99.90;;;;;;5222228;28;20278;-52
2022/11/24 00:18:16;;;;;;;326.43;98.60;;;1.50;99.90;;;;;;5223227;28;20198;-51
2022/11/24 00:20:52;;;;;;;304.67;92.30;;;1.50;99.90;;;;;;5220838;28;20702;-50
2022/11/24 00:23:23;;;;;;;279.53;91.77;;;1.50;99.90;;;;;;5224855;28;20688;-50
2022/11/24 00:25:54;;;;;;;324.03;93.13;;;1.40;99.90;;;;;;5235716;28;20463;-51
2022/11/24 00:28:24;;;;;;;309.33;96.50;;;1.50;99.90;;;;;;5225466;28;20682;-52
2022/11/24 00:30:55;;;;;;;321.27;96.23;;;1.60;99.90;;;;;;5240021;28;20265;-51
2022/11/24 00:33:25;;;;;;;345.90;98.13;;;1.50;99.90;;;;;;5230391;28;20166;-52
2022/11/24 00:35:58;;;;;;;294.87;94.23;;;1.50;99.90;;;;;;5221302;28;20203;-52
2022/11/24 00:38:29;;;;;;;311.20;97.60;;;1.50;99.90;;;;;;5243649;28;20193;-50
2022/11/24 00:40:59;;;;;;;319.03;97.70;;;1.50;99.90;;;;;;5234969;28;20916;-51
2022/11/24 00:43:30;;;;;;;321.63;96.07;;;1.50;99.90;;;;;;5215472;28;20204;-51
2022/11/24 00:46:01;;;;;;;291.80;91.83;;;1.50;99.90;;;;;;5231984;28;20587;-49
2022/11/24 00:48:31;;;;;;;286.47;93.60;;;1.60;99.90;;;;;;5225724;28;20170;-52
2022/11/24 00:51:07;;;;;;;289.43;95.00;;;1.50;99.90;;;;;;5224828;28;20182;-50
2022/11/24 00:53:38;;;;;;;294.80;96.17;;;1.50;99.90;;;;;;5235037;28;20825;-52
2022/11/24 00:56:10;;;;;;;343.13;100.60;;;1.50;99.90;;;;;;5222488;28;20520;-52
2022/11/24 00:58:41;;;;;;;311.20;95.80;;;1.50;99.90;;;;;;5216949;28;20464;-53
2022/11/24 01:01:15;;;;;;;343.37;106.03;;;1.50;99.90;;;;;;5243929;28;20432;-51
2022/11/24 01:03:46;;;;;;;339.57;105.60;;;1.50;99.90;;;;;;5236684;28;20565;-52
2022/11/24 01:06:22;;;;;;;325.70;103.63;;;1.50;99.90;;;;;;5210287;28;20523;-50
2022/11/24 01:08:54;;;;;;;334.37;103.80;;;1.60;99.90;;;;;;5220962;28;20788;-53
2022/11/24 01:11:28;;;;;;;348.47;100.47;;;1.50;99.90;;;;;;5236009;28;20448;-50
2022/11/24 01:13:59;;;;;;;324.93;100.47;;;1.50;99.90;;;;;;5238903;28;20435;-50
2022/11/24 01:16:34;;;;;;;316.37;98.23;;;1.60;99.90;;;;;;5221315;28;20491;-51
2022/11/24 01:19:04;;;;;;;320.43;97.37;;;1.60;99.90;;;;;;5223496;28;20281;-51
2022/11/24 01:21:35;;;;;;;302.63;95.27;;;1.60;99.90;;;;;;5234635;28;20436;-51
2022/11/24 01:24:06;;;;;;;273.70;89.43;;;1.50;99.90;;;;;;5234170;28;20264;-53
2022/11/24 01:26:37;;;;;;;282.30;90.20;;;1.70;99.90;;;;;;5235829;28;20651;-51
2022/11/24 01:29:09;;;;;;;263.53;92.20;;;1.70;99.90;;;;;;5233560;28;20674;-51
2022/11/24 01:31:40;;;;;;;292.53;89.03;;;1.70;99.90;;;;;;5237478;28;20490;-49
2022/11/24 01:34:12;;;;;;;245.83;81.37;;;1.60;99.90;;;;;;5224280;28;20453;-52
2022/11/24 01:36:42;;;;;;;252.10;82.00;;;1.60;99.90;;;;;;5239698;28;20570;-51
2022/11/24 01:39:13;;;;;;;234.70;80.50;;;1.70;99.90;;;;;;5234966;28;20523;-50
2022/11/24 01:41:44;;;;;;;235.83;81.00;;;1.70;99.90;;;;;;5225881;28;20623;-50
2022/11/24 01:44:26;;;;;;;256.57;84.13;;;1.60;99.90;;;;;;5247374;28;20284;-50
2022/11/24 01:47:04;;;;;;;246.20;86.27;;;1.60;99.90;;;;;;5231083;28;20174;-50
2022/11/24 01:49:46;;;;;;;276.77;87.40;;;1.60;99.90;;;;;;5240670;28;20442;-50
2022/11/24 01:52:39;;;;;;;271.73;86.80;;;1.60;99.90;;;;;;5242842;28;20433;-51
2022/11/24 01:55:19;;;;;;;291.97;89.63;;;1.60;99.90;;;;;;5225445;28;20564;-50
2022/11/24 01:58:12;;;;;;;287.90;89.87;;;1.50;99.90;;;;;;5247227;28;20424;-52
2022/11/24 02:00:44;;;;;;;236.43;78.40;;;1.60;99.90;;;;;;5221259;28;20419;-49
2022/11/24 02:03:19;;;;;;;244.10;84.17;;;1.70;99.90;;;;;;5237526;28;20465;-50
2022/11/24 02:06:01;;;;;;;204.63;73.30;;;1.70;99.90;;;;;;5239775;28;20468;-50
2022/11/24 02:08:43;;;;;;;183.60;68.53;;;1.70;99.90;;;;;;5242628;28;20441;-50
2022/11/24 02:11:14;;;;;;;213.93;74.87;;;1.80;99.90;;;;;;5248010;28;20895;-50
2022/11/24 02:13:47;;;;;;;184.37;64.00;;;1.80;99.90;;;;;;5226808;28;20471;-51
2022/11/24 02:16:18;;;;;;;187.73;68.30;;;1.80;99.90;;;;;;5240401;28;20198;-49
2022/11/24 02:18:48;;;;;;;186.90;69.27;;;1.70;99.90;;;;;;5241455;28;20428;-50
2022/11/24 02:21:19;;;;;;;179.30;63.93;;;1.80;99.90;;;;;;5230483;28;20186;-50
2022/11/24 02:24:07;;;;;;;194.40;70.40;;;1.80;99.90;;;;;;5236727;28;20206;-51
2022/11/24 02:26:46;;;;;;;186.17;69.97;;;1.70;99.90;;;;;;5249617;28;20189;-50
2022/11/24 02:29:19;;;;;;;172.13;59.67;;;1.70;99.90;;;;;;5242156;28;20428;-50
2022/11/24 02:32:00;;;;;;;190.43;67.80;;;1.60;99.90;;;;;;5241594;28;20439;-51
2022/11/24 02:34:31;;;;;;;198.87;72.07;;;1.60;99.90;;;;;;5224954;28;20801;-50
2022/11/24 02:37:02;;;;;;;186.77;65.03;;;1.60;99.90;;;;;;5216206;28;20434;-50
2022/11/24 02:39:32;;;;;;;204.73;67.13;;;1.60;99.90;;;;;;5219842;28;20178;-50
2022/11/24 02:42:10;;;;;;;189.50;68.00;;;1.60;99.90;;;;;;5238242;28;20228;-50
2022/11/24 02:44:45;;;;;;;172.80;63.43;;;1.60;99.90;;;;;;5227231;28;20206;-50
2022/11/24 02:47:15;;;;;;;183.37;63.30;;;1.60;99.90;;;;;;5216186;28;20435;-50
2022/11/24 02:49:46;;;;;;;172.90;63.40;;;1.50;99.90;;;;;;5242894;28;20444;-50
2022/11/24 02:52:17;;;;;;;178.50;61.30;;;1.50;99.90;;;;;;5246411;28;20198;-50
2022/11/24 02:54:47;;;;;;;186.07;62.43;;;1.50;99.90;;;;;;5226276;28;20675;-48
2022/11/24 02:57:18;;;;;;;181.40;60.13;;;1.50;99.90;;;;;;5228954;28;20249;-50
2022/11/24 02:59:49;;;;;;;166.70;62.40;;;1.50;99.90;;;;;;5241474;28;20190;-50
2022/11/24 03:02:19;;;;;;;190.67;66.83;;;1.50;99.90;;;;;;5238592;28;20228;-49
2022/11/24 03:04:50;;;;;;;205.43;67.70;;;1.50;99.90;;;;;;5241826;28;20263;-48
2022/11/24 03:07:21;;;;;;;207.17;68.90;;;1.50;99.90;;;;;;5228552;28;20209;-48
2022/11/24 03:09:52;;;;;;;204.70;66.80;;;1.50;99.90;;;;;;5228088;28;20235;-50
2022/11/24 03:12:23;;;;;;;182.10;63.50;;;1.40;99.90;;;;;;5228452;28;20436;-50
2022/11/24 03:14:53;;;;;;;215.73;68.07;;;1.40;99.90;;;;;;5225083;28;20194;-50
2022/11/24 03:17:24;;;;;;;210.57;69.17;;;1.50;99.90;;;;;;5238289;28;20197;-52
2022/11/24 03:19:54;;;;;;;213.77;64.93;;;1.40;99.90;;;;;;5229107;28;20182;-49
2022/11/24 03:22:25;;;;;;;192.37;65.97;;;1.40;99.90;;;;;;5241554;28;20185;-50
2022/11/24 03:24:56;;;;;;;181.00;64.57;;;1.40;99.90;;;;;;5243134;28;20245;-50
2022/11/24 03:27:26;;;;;;;172.37;62.20;;;1.50;99.90;;;;;;5238744;28;20205;-50
2022/11/24 03:29:57;;;;;;;186.67;65.40;;;1.50;99.90;;;;;;5235690;28;20247;-50
2022/11/24 03:32:28;;;;;;;196.07;64.00;;;1.40;99.90;;;;;;5221191;28;20175;-51
2022/11/24 03:34:59;;;;;;;192.67;66.17;;;1.50;99.90;;;;;;5239750;28;20570;-51
2022/11/24 03:37:30;;;;;;;195.83;63.67;;;1.40;99.90;;;;;;5224243;28;20185;-50
2022/11/24 03:40:00;;;;;;;162.17;57.13;;;1.40;99.90;;;;;;5243197;28;20437;-50
2022/11/24 03:42:31;;;;;;;140.83;54.67;;;1.50;99.90;;;;;;5235402;28;20232;-50
2022/11/24 03:45:02;;;;;;;146.97;54.97;;;1.60;99.90;;;;;;5242188;28;20198;-50
2022/11/24 03:47:32;;;;;;;172.33;56.03;;;1.60;99.90;;;;;;5216469;28;20240;-51
2022/11/24 03:50:04;;;;;;;187.57;59.83;;;1.50;99.90;;;;;;5238836;28;20701;-51
2022/11/24 03:52:34;;;;;;;176.07;56.47;;;1.40;99.90;;;;;;5238718;28;21021;-50
2022/11/24 03:55:05;;;;;;;151.87;54.83;;;1.50;99.90;;;;;;5223516;28;20437;-51
2022/11/24 03:57:36;;;;;;;146.43;54.77;;;1.40;99.90;;;;;;5242994;28;20295;-51
2022/11/24 04:00:07;;;;;;;158.07;58.20;;;1.40;99.90;;;;;;5240186;28;20437;-49
2022/11/24 04:02:38;;;;;;;157.53;57.03;;;1.40;99.90;;;;;;5226514;28;20624;-49
2022/11/24 04:05:08;;;;;;;171.23;56.67;;;1.40;99.90;;;;;;5237987;28;20491;-49
2022/11/24 04:07:39;;;;;;;160.20;53.17;;;1.40;99.90;;;;;;5241173;28;20173;-50
2022/11/24 04:10:10;;;;;;;166.20;55.50;;;1.40;99.90;;;;;;5247733;28;20181;-51
2022/11/24 04:12:43;;;;;;;174.13;55.93;;;1.30;99.90;;;;;;5235441;28;20186;-50
2022/11/24 04:15:16;;;;;;;163.53;54.67;;;1.30;99.90;;;;;;5224883;28;20719;-49
2022/11/24 04:17:48;;;;;;;136.67;50.00;;;1.30;99.90;;;;;;5222952;28;20428;-50
2022/11/24 04:20:19;;;;;;;160.93;52.43;;;1.40;99.90;;;;;;5234186;28;20496;-51
2022/11/24 04:22:50;;;;;;;159.70;54.63;;;1.40;99.90;;;;;;5219476;28;20430;-51
2022/11/24 04:25:21;;;;;;;154.80;51.67;;;1.40;99.90;;;;;;5237869;28;20193;-49
2022/11/24 04:27:53;;;;;;;149.23;52.47;;;1.30;99.90;;;;;;5244618;28;20431;-51
2022/11/24 04:30:26;;;;;;;133.27;51.23;;;1.30;99.90;;;;;;5232706;28;20183;-50
2022/11/24 04:32:56;;;;;;;156.63;52.23;;;1.40;99.90;;;;;;5243509;28;20444;-51
2022/11/24 04:35:27;;;;;;;151.33;50.47;;;1.40;99.90;;;;;;5231104;28;20449;-50
2022/11/24 04:38:01;;;;;;;126.43;46.10;;;1.40;99.90;;;;;;5220382;28;20659;-50
2022/11/24 04:40:32;;;;;;;160.50;51.13;;;1.30;99.90;;;;;;5243431;28;20178;-50
2022/11/24 04:43:03;;;;;;;152.57;52.87;;;1.30;99.90;;;;;;5223439;28;20486;-50
2022/11/24 04:45:33;;;;;;;154.67;54.00;;;1.30;99.90;;;;;;5241391;28;20202;-50
2022/11/24 04:48:04;;;;;;;218.93;58.27;;;1.20;99.90;;;;;;5227430;28;20200;-50
2022/11/24 04:50:36;;;;;;;176.53;57.30;;;1.20;99.90;;;;;;5241487;28;20279;-50
2022/11/24 04:53:08;;;;;;;160.67;52.47;;;1.20;99.90;;;;;;5235572;28;20479;-49
2022/11/24 04:55:39;;;;;;;124.40;47.67;;;1.30;99.90;;;;;;5225843;28;20491;-50
2022/11/24 04:58:10;;;;;;;181.33;53.40;;;1.40;99.90;;;;;;5241875;28;20416;-52
2022/11/24 05:00:40;;;;;;;149.57;51.77;;;1.40;99.90;;;;;;5234374;28;20436;-50
2022/11/24 05:03:11;;;;;;;142.20;50.00;;;1.40;99.90;;;;;;5236127;28;20241;-50
2022/11/24 05:05:42;;;;;;;140.17;50.90;;;1.30;99.90;;;;;;5222829;28;20287;-50
2022/11/24 05:08:12;;;;;;;114.53;43.93;;;1.30;99.90;;;;;;5239848;28;20178;-51
2022/11/24 05:10:43;;;;;;;150.50;47.83;;;1.40;99.90;;;;;;5236833;28;20186;-52
2022/11/24 05:13:13;;;;;;;108.90;45.37;;;1.50;99.90;;;;;;5231263;28;20273;-51
2022/11/24 05:15:44;;;;;;;138.20;44.47;;;1.40;99.90;;;;;;5215488;28;20220;-51
2022/11/24 05:18:15;;;;;;;133.60;47.97;;;1.30;99.90;;;;;;5228229;28;20268;-50
2022/11/24 05:20:46;;;;;;;138.77;48.27;;;1.30;99.90;;;;;;5224160;28;20182;-51
2022/11/24 05:23:16;;;;;;;136.80;47.90;;;1.20;99.90;;;;;;5226542;28;20463;-52
2022/11/24 05:25:47;;;;;;;181.03;51.03;;;1.20;99.90;;;;;;5220839;28;20199;-50
2022/11/24 05:28:18;;;;;;;157.73;46.83;;;1.10;99.90;;;;;;5232205;28;20201;-50
2022/11/24 05:30:48;;;;;;;132.10;47.63;;;1.20;99.90;;;;;;5240402;28;20264;-51
2022/11/24 05:33:21;;;;;;;122.13;46.77;;;1.20;99.90;;;;;;5229732;28;20436;-50
2022/11/24 05:35:52;;;;;;;137.97;46.00;;;1.20;99.90;;;;;;5225057;28;20198;-48
2022/11/24 05:38:23;;;;;;;142.27;50.40;;;1.20;99.90;;;;;;5241671;28;20427;-51
2022/11/24 05:40:53;;;;;;;153.87;52.37;;;1.20;99.90;;;;;;5241476;28;20216;-51
2022/11/24 05:43:24;;;;;;;143.73;47.57;;;1.20;99.90;;;;;;5228479;28;20190;-52
2022/11/24 05:45:58;;;;;;;181.33;52.57;;;1.20;99.90;;;;;;5223497;28;20205;-50
2022/11/24 05:48:29;;;;;;;156.77;50.97;;;1.10;99.90;;;;;;5235100;28;20276;-52
2022/11/24 05:51:00;;;;;;;168.73;51.93;;;1.10;99.90;;;;;;5224835;28;20528;-50
2022/11/24 05:53:30;;;;;;;178.63;52.53;;;1.10;99.90;;;;;;5235535;28;20328;-49
2022/11/24 05:56:04;;;;;;;168.53;50.63;;;1.20;99.90;;;;;;5219706;28;20608;-50
2022/11/24 05:58:35;;;;;;;132.57;46.10;;;1.20;99.90;;;;;;5234326;28;20684;-52
2022/11/24 06:01:06;;;;;;;130.90;46.13;;;1.20;99.90;;;;;;5237698;28;20456;-50
2022/11/24 06:03:37;;;;;;;121.00;44.07;;;1.20;99.90;;;;;;5225481;28;20240;-51
2022/11/24 06:06:07;;;;;;;144.60;44.83;;;1.10;99.90;;;;;;5223675;28;20466;-52
2022/11/24 06:08:38;;;;;;;121.83;43.33;;;1.20;99.90;;;;;;5237905;28;20187;-51
2022/11/24 06:11:17;;;;;;;121.77;42.10;;;1.10;99.90;;;;;;5231770;28;20179;-51
2022/11/24 06:13:48;;;;;;;96.60;39.10;;;1.10;99.90;;;;;;5226843;28;20182;-49
2022/11/24 06:16:19;;;;;;;104.90;39.93;;;1.00;99.90;;;;;;5236566;28;20788;-50
2022/11/24 06:18:49;;;;;;;84.27;36.03;;;1.10;99.90;;;;;;5236959;28;20650;-51
2022/11/24 06:21:20;;;;;;;97.80;36.50;;;1.10;99.90;;;;;;5232901;28;20276;-50
2022/11/24 06:23:51;;;;;;;99.60;38.90;;;1.10;99.90;;;;;;5236892;28;20206;-49
2022/11/24 06:26:21;;;;;;;92.07;37.07;;;1.40;99.90;;;;;;5243492;28;20175;-49
2022/11/24 06:28:52;;;;;;;112.27;40.70;;;1.20;99.90;;;;;;5244706;28;20534;-51
2022/11/24 06:31:22;;;;;;;114.40;39.10;;;1.20;99.90;;;;;;5240935;28;20198;-49
2022/11/24 06:33:53;;;;;;;116.67;39.90;;;1.10;99.90;;;;;;5237703;28;20709;-51
2022/11/24 06:36:24;;;;;;;95.80;38.07;;;1.10;99.90;;;;;;5222036;28;20281;-51
2022/11/24 06:38:55;;;;;;;102.67;39.00;;;1.10;99.90;;;;;;5246077;28;20182;-51
2022/11/24 06:41:25;;;;;;;102.67;38.77;;;1.20;99.90;;;;;;5241806;28;20440;-51
2022/11/24 06:43:56;;;;;;;118.13;44.30;;;1.20;99.90;;;;;;5232676;28;20759;-50
2022/11/24 06:46:26;;;;;;;133.83;43.63;;;1.20;99.90;;;;;;5243422;28;20261;-52
2022/11/24 06:48:58;;;;;;;116.43;42.33;;;1.20;99.90;;;;;;5246931;28;20226;-50
2022/11/24 06:51:29;;;;;;;109.43;40.47;;;1.20;99.90;;;;;;5235222;28;20668;-53
2022/11/24 06:54:00;;;;;;;124.00;45.27;;;1.20;99.90;;;;;;5241329;28;20467;-49
2022/11/24 06:56:31;;;;;;;121.60;44.40;;;1.20;99.90;;;;;;5254136;28;20182;-53
2022/11/24 06:59:02;;;;;;;122.77;45.20;;;1.20;99.90;;;;;;5226412;28;20471;-51
2022/11/24 07:01:32;;;;;;;110.60;44.20;;;1.30;99.90;;;;;;5245127;28;20228;-50
2022/11/24 07:04:03;;;;;;;128.03;44.10;;;1.30;99.90;;;;;;5237816;28;20484;-50
2022/11/24 07:06:34;;;;;;;123.43;44.27;;;1.20;99.90;;;;;;5235360;28;20665;-53
2022/11/24 07:09:04;;;;;;;132.77;45.40;;;1.20;99.90;;;;;;5234472;28;20286;-51
2022/11/24 07:11:39;;;;;;;113.53;42.40;;;1.20;99.90;;;;;;5212106;28;20217;-53
2022/11/24 07:14:09;;;;;;;104.23;40.77;;;1.30;99.90;;;;;;5202410;28;20202;-51
2022/11/24 07:16:40;;;;;;;133.57;43.20;;;1.30;99.90;;;;;;5238288;28;20449;-50
2022/11/24 07:19:11;;;;;;;117.00;41.70;;;1.30;99.90;;;;;;5240216;28;20654;-50
2022/11/24 07:21:41;;;;;;;118.17;42.33;;;1.30;99.90;;;;;;5236658;28;20198;-51
2022/11/24 07:24:12;;;;;;;113.80;40.90;;;1.40;99.90;;;;;;5238888;28;20218;-50
2022/11/24 07:26:42;;;;;;;108.77;42.43;;;1.40;99.90;;;;;;5239450;28;20264;-50
2022/11/24 07:29:13;;;;;;;111.37;43.10;;;1.30;99.90;;;;;;5222228;28;20178;-51
2022/11/24 07:31:44;;;;;;;113.43;40.20;;;1.40;99.90;;;;;;5223449;28;20185;-51
2022/11/24 07:34:15;;;;;;;113.20;42.87;;;1.30;99.90;;;;;;5238793;28;20552;-52
2022/11/24 07:36:46;;;;;;;95.47;38.83;;;1.20;99.90;;;;;;5236498;28;20531;-51
2022/11/24 07:39:16;;;;;;;103.13;39.73;;;1.40;99.90;;;;;;5216256;28;20491;-50
2022/11/24 07:41:47;;;;;;;103.23;38.73;;;1.40;99.90;;;;;;5222431;28;20639;-52
2022/11/24 07:44:17;;;;;;;102.13;40.27;;;1.30;99.90;;;;;;5237200;28;20241;-50
2022/11/24 07:46:50;;;;;;;109.03;41.47;;;1.50;99.90;;;;;;5222347;28;20182;-51
2022/11/24 07:49:20;;;;;;;112.03;40.60;;;1.50;99.90;;;;;;5224763;28;20682;-53
2022/11/24 07:51:51;;;;;;;103.00;38.70;;;1.50;99.90;;;;;;5216213;28;20444;-53
2022/11/24 07:54:22;;;;;;;97.13;39.00;;;1.40;99.90;;;;;;5222589;28;20568;-50
2022/11/24 07:56:52;;;;;;;92.20;37.60;;;1.50;99.90;;;;;;5251680;28;20209;-51
2022/11/24 07:59:23;;;;;;;82.70;34.30;;;1.60;99.90;;;;;;5245128;28;20269;-50
2022/11/24 08:01:53;;;;;;;72.83;33.50;;;1.80;99.90;;;;;;5233566;28;20286;-50
2022/11/24 08:04:24;;;;;;;92.23;35.00;;;1.80;99.90;;;;;;5230942;28;20726;-50
2022/11/24 08:06:55;;;;;;;85.17;34.43;;;1.90;99.90;;;;;;5212263;28;20278;-50
2022/11/24 08:09:25;;;;;;;82.73;36.17;;;1.90;99.90;;;;;;5222899;28;20187;-51
2022/11/24 08:11:56;;;;;;;78.73;34.57;;;1.80;99.90;;;;;;5216674;28;20576;-52
2022/11/24 08:14:26;;;;;;;75.57;34.80;;;1.80;99.90;;;;;;5231551;28;20236;-49
2022/11/24 08:16:57;;;;;;;70.90;34.37;;;1.90;99.90;;;;;;5218364;28;20594;-52
2022/11/24 08:19:28;;;;;;;91.67;32.17;;;2.00;99.90;;;;;;5235677;28;20196;-50
2022/11/24 08:21:58;;;;;;;63.20;30.93;;;2.10;99.90;;;;;;5235902;28;20440;-52
2022/11/24 08:24:30;;;;;;;67.13;31.70;;;2.10;99.90;;;;;;5240476;28;20224;-51
2022/11/24 08:27:00;;;;;;;69.80;32.03;;;2.30;99.90;;;;;;5241985;28;20688;-52
2022/11/24 08:29:31;;;;;;;67.13;30.90;;;2.30;99.90;;;;;;5233214;28;20432;-50
2022/11/24 08:32:02;;;;;;;67.17;30.10;;;2.30;99.90;;;;;;5233575;28;20188;-50
2022/11/24 08:34:32;;;;;;;72.00;30.50;;;2.20;99.90;;;;;;5236426;28;20240;-48
2022/11/24 08:37:04;;;;;;;74.00;32.30;;;2.20;99.90;;;;;;5241390;28;20206;-51
2022/11/24 08:39:34;;;;;;;62.10;31.30;;;2.20;99.90;;;;;;5237579;28;20235;-50
2022/11/24 08:42:05;;;;;;;65.70;28.53;;;2.20;99.90;;;;;;5234114;28;21017;-52
2022/11/24 08:44:35;;;;;;;68.87;29.50;;;2.30;99.90;;;;;;5233647;28;20709;-50
2022/11/24 08:47:06;;;;;;;52.83;26.40;;;2.40;99.90;;;;;;5208641;28;20187;-52
2022/11/24 08:49:37;;;;;;;60.90;27.10;;;2.50;99.90;;;;;;5208979;28;20272;-51
2022/11/24 08:52:07;;;;;;;56.00;28.23;;;2.50;99.90;;;;;;5218418;28;20195;-50
2022/11/24 08:54:39;;;;;;;57.93;28.17;;;2.50;99.90;;;;;;5223953;28;20206;-49
2022/11/24 08:57:13;;;;;;;61.40;30.60;;;2.50;99.90;;;;;;5224836;28;20197;-50
2022/11/24 08:59:45;;;;;;;62.87;31.20;;;2.50;99.90;;;;;;5222779;28;20479;-51
2022/11/24 09:02:15;;;;;;;64.50;30.63;;;2.50;99.90;;;;;;5236697;28;20443;-51
2022/11/24 09:04:46;;;;;;;70.77;31.10;;;2.40;99.90;;;;;;5222775;28;20472;-52
2022/11/24 09:07:17;;;;;;;72.13;31.83;;;2.40;99.90;;;;;;5237009;28;20195;-52
2022/11/24 09:09:47;;;;;;;66.77;29.90;;;2.50;99.90;;;;;;5241438;28;20478;-51
2022/11/24 09:12:18;;;;;;;71.20;30.73;;;2.40;99.90;;;;;;5222298;28;20179;-53
2022/11/24 09:14:48;;;;;;;63.60;30.10;;;2.50;99.90;;;;;;5223981;28;20233;-50
2022/11/24 09:17:19;;;;;;;59.57;29.93;;;2.50;99.90;;;;;;5240896;28;20531;-49
2022/11/24 09:19:49;;;;;;;56.37;30.50;;;2.70;99.90;;;;;;5242101;28;20183;-53
2022/11/24 09:22:20;;;;;;;52.07;28.20;;;2.70;99.90;;;;;;5236266;28;20217;-51
2022/11/24 09:24:51;;;;;;;57.00;28.27;;;2.80;99.90;;;;;;5238672;28;20221;-51
2022/11/24 09:27:21;;;;;;;56.83;29.60;;;2.90;99.90;;;;;;5229962;28;20261;-50
2022/11/24 09:29:52;;;;;;;64.77;32.90;;;3.00;99.90;;;;;;5224400;28;21073;-52
2022/11/24 09:32:22;;;;;;;69.67;27.70;;;3.20;99.90;;;;;;5237032;28;20233;-51
2022/11/24 09:34:53;;;;;;;60.63;28.30;;;3.10;99.90;;;;;;5219520;28;20290;-51
2022/11/24 09:37:24;;;;;;;57.90;28.30;;;3.00;99.90;;;;;;5218147;28;20233;-52
2022/11/24 09:39:54;;;;;;;62.37;29.83;;;3.00;99.90;;;;;;5223960;28;20715;-50
2022/11/24 09:42:47;;;;;;;63.33;30.77;;;3.10;99.90;;;;;;5211736;28;20214;-50
2022/11/24 09:45:39;;;;;;;60.33;30.50;;;3.10;99.90;;;;;;5236134;28;20220;-51
2022/11/24 09:48:25;;;;;;;63.73;31.27;;;3.20;99.90;;;;;;5239560;28;20430;-55
2022/11/24 09:51:00;;;;;;;64.10;29.90;;;3.30;99.90;;;;;;5237704;28;20432;-51
2022/11/24 09:53:30;;;;;;;62.77;31.73;;;3.40;99.90;;;;;;5221700;28;20523;-51
2022/11/24 09:56:13;;;;;;;58.40;28.90;;;3.40;99.90;;;;;;5212996;28;20820;-51
2022/11/24 09:58:56;;;;;;;59.73;29.10;;;3.40;99.90;;;;;;5224190;28;20194;-50
2022/11/24 10:01:33;;;;;;;62.40;30.50;;;3.60;99.90;;;;;;5241612;28;20437;-51
2022/11/24 10:04:23;;;;;;;64.97;30.07;;;3.60;99.90;;;;;;5220927;28;20467;-50
2022/11/24 10:07:15;;;;;;;48.40;27.27;;;3.70;99.90;;;;;;5241693;28;20445;-52
2022/11/24 10:10:27;;;;;;;62.77;30.63;;;4.00;99.90;;;;;;5236431;28;20544;-50
2022/11/24 10:13:33;;;;;;;52.33;28.17;;;4.00;99.90;;;;;;5156685;28;21007;-52
2022/11/24 10:16:59;;;;;;;62.23;29.30;;;4.10;99.90;;;;;;5232435;28;20460;-51
2022/11/24 10:19:48;;;;;;;60.73;31.60;;;4.00;99.90;;;;;;5211284;28;20443;-51
2022/11/24 10:22:43;;;;;;;63.73;30.97;;;3.80;99.90;;;;;;5238349;28;20442;-50
2022/11/24 10:25:36;;;;;;;68.87;31.37;;;3.70;99.90;;;;;;5217711;28;20465;-51
2022/11/24 10:28:13;;;;;;;60.73;30.53;;;3.80;99.90;;;;;;5213648;28;20429;-51
2022/11/24 10:30:44;;;;;;;70.33;32.70;;;3.80;99.90;;;;;;5221548;28;20512;-50
2022/11/24 10:33:15;;;;;;;63.30;30.63;;;3.80;99.90;;;;;;5241353;28;20439;-50
2022/11/24 10:35:54;;;;;;;65.13;31.60;;;4.00;99.90;;;;;;5240995;28;20223;-53
2022/11/24 10:38:36;;;;;;;66.50;33.33;;;4.10;99.90;;;;;;5239926;28;20174;-51
2022/11/24 10:41:17;;;;;;;55.07;27.37;;;4.30;99.90;;;;;;5235745;28;20751;-51
2022/11/24 10:43:48;;;;;;;52.80;27.50;;;4.50;99.90;;;;;;5238639;28;20461;-51
2022/11/24 10:46:27;;;;;;;51.50;27.83;;;4.70;99.90;;;;;;5241474;28;21251;-51
2022/11/24 10:49:02;;;;;;;55.20;26.93;;;4.60;99.90;;;;;;5239851;28;21490;-52
2022/11/24 10:51:51;;;;;;;63.47;24.60;;;4.70;99.90;;;;;;5225413;28;20438;-50
2022/11/24 10:54:23;;;;;;;44.97;23.73;;;4.70;99.90;;;;;;5237000;28;20932;-49
2022/11/24 10:56:54;;;;;;;49.33;23.70;;;4.70;99.90;;;;;;5239698;28;20805;-49
2022/11/24 10:59:29;;;;;;;48.73;24.83;;;4.60;99.90;;;;;;5241528;28;20436;-50
2022/11/24 11:02:00;;;;;;;49.27;25.00;;;4.70;99.90;;;;;;5222810;28;20446;-50
2022/11/24 11:04:33;;;;;;;46.00;25.70;;;4.70;99.90;;;;;;5236068;23;20549;-50
2022/11/24 11:07:12;;;;;;;40.57;24.40;;;4.70;99.90;;;;;;5250024;28;20173;-51
2022/11/24 11:09:44;;;;;;;50.40;27.20;;;4.50;99.90;;;;;;5266190;28;20951;-51
2022/11/24 11:12:29;;;;;;;45.97;23.87;;;4.40;99.90;;;;;;5253189;28;20465;-48
2022/11/24 11:15:24;;;;;;;39.70;23.60;;;4.60;99.90;;;;;;5224622;28;20458;-51
2022/11/24 11:18:01;;;;;;;43.87;23.80;;;4.70;99.90;;;;;;5238202;28;20466;-49
2022/11/24 11:20:33;;;;;;;48.23;24.47;;;4.70;99.90;;;;;;5249620;28;20447;-49
2022/11/24 11:23:26;;;;;;;48.57;26.17;;;4.80;99.90;;;;;;5229497;28;20445;-50
2022/11/24 11:26:30;;;;;;;48.23;24.70;;;4.90;99.90;;;;;;5234553;28;21040;-52
2022/11/24 11:29:07;;;;;;;43.73;24.13;;;4.90;99.90;;;;;;5229630;28;21073;-47
2022/11/24 11:31:38;;;;;;;52.23;26.37;;;5.00;99.90;;;;;;5234761;28;20846;-50
2022/11/24 11:34:09;;;;;;;38.17;22.13;;;5.10;99.90;;;;;;5252467;28;20448;-51
2022/11/24 11:36:44;;;;;;;44.57;24.37;;;5.30;99.90;;;;;;5258844;28;20444;-50
2022/11/24 11:39:36;;;;;;;46.90;24.63;;;5.30;99.90;;;;;;5260389;28;20257;-47
2022/11/24 11:42:31;;;;;;;39.20;22.73;;;5.30;99.90;;;;;;5231962;28;20530;-48
2022/11/24 11:45:25;;;;;;;45.90;25.03;;;5.40;99.90;;;;;;5239257;28;20472;-51
2022/11/24 11:48:11;;;;;;;41.27;23.37;;;5.50;99.90;;;;;;5245718;28;20439;-51
2022/11/24 11:50:57;;;;;;;42.57;23.87;;;5.60;99.90;;;;;;5240015;28;20414;-48
2022/11/24 11:53:35;;;;;;;47.97;24.93;;;5.70;99.90;;;;;;5248343;28;20422;-48
2022/11/24 11:56:27;;;;;;;53.53;24.83;;;5.80;99.90;;;;;;5242672;28;20555;-48
2022/11/24 11:59:32;;;;;;;47.50;26.47;;;5.50;99.90;;;;;;5262017;28;20436;-52
2022/11/24 12:02:21;;;;;;;50.70;27.60;;;5.40;99.90;;;;;;5260111;28;20575;-52
2022/11/24 12:04:58;;;;;;;59.23;28.07;;;5.40;99.90;;;;;;5253605;28;20461;-52
2022/11/24 12:07:47;;;;;;;45.80;27.30;;;5.30;99.90;;;;;;5259061;28;20525;-51
2022/11/24 12:10:29;;;;;;;40.43;24.97;;;5.20;99.90;;;;;;5238039;28;20796;-51
2022/11/24 12:13:43;;;;;;;44.27;24.77;;;5.50;99.90;;;;;;5238061;28;20437;-51
2022/11/24 12:16:39;;;;;;;45.73;26.20;;;5.40;99.90;;;;;;5254972;28;20458;-51
2022/11/24 12:19:21;;;;;;;49.80;26.50;;;5.50;99.90;;;;;;5260434;28;20424;-50
2022/11/24 12:22:01;;;;;;;51.70;26.77;;;5.40;99.90;;;;;;5261342;28;20443;-51
2022/11/24 12:24:55;;;;;;;41.07;23.90;;;5.30;99.90;;;;;;5255899;28;20474;-51
2022/11/24 12:27:48;;;;;;;44.17;22.70;;;5.30;99.90;;;;;;5245616;28;20428;-49
2022/11/24 12:30:21;;;;;;;52.57;26.57;;;5.30;99.90;;;;;;5226677;28;20887;-50
2022/11/24 12:33:04;;;;;;;51.63;24.50;;;5.30;99.90;;;;;;5239119;28;20972;-49
2022/11/24 12:35:47;;;;;;;53.67;25.87;;;5.20;99.90;;;;;;5258101;28;20439;-48
2022/11/24 12:38:30;;;;;;;46.57;24.83;;;5.20;99.90;;;;;;5236080;28;20446;-48
2022/11/24 12:41:26;;;;;;;40.67;24.63;;;5.30;99.90;;;;;;5239131;28;20487;-49
2022/11/24 12:43:59;;;;;;;58.53;24.50;;;5.30;99.90;;;;;;5249490;28;20512;-51
2022/11/24 12:46:49;;;;;;;38.23;23.87;;;5.40;99.90;;;;;;5242997;28;20458;-48
2022/11/24 12:49:47;;;;;;;46.73;24.40;;;5.50;99.90;;;;;;5256652;28;20521;-49
2022/11/24 12:52:39;;;;;;;55.20;28.13;;;5.90;99.90;;;;;;5255536;28;20507;-51
2022/11/24 12:55:21;;;;;;;43.03;24.73;;;6.00;99.90;;;;;;5225219;28;21007;-52
2022/11/24 12:58:30;;;;;;;42.93;25.00;;;6.20;99.90;;;;;;5247800;28;20792;-50
2022/11/24 13:01:27;;;;;;;52.90;25.17;;;6.20;99.90;;;;;;5231737;28;20451;-51
2022/11/24 13:04:14;;;;;;;35.67;22.20;;;6.20;99.90;;;;;;5227806;28;20459;-53
2022/11/24 13:07:10;;;;;;;49.93;25.80;;;6.30;99.90;;;;;;5237245;28;20431;-52
2022/11/24 13:10:18;;;;;;;42.50;25.07;;;6.20;99.90;;;;;;5236377;28;20441;-54